sensor_id;sensor_type;location;lat;lon;timestamp;temperature;humidity
4755;DHT22;2391;47.212;7.542;2022-12-10T00:01:33;5.20;96.70
4755;DHT22;2391;47.212;7.542;2022-12-10T00:04:01;5.20;96.70
4755;DHT22;2391;47.212;7.542;2022-12-10T00:06:31;5.20;96.70
4755;DHT22;2391;47.212;7.542;2022-12-10T00:08:59;5.20;96.80
4755;DHT22;2391;47.212;7.542;2022-12-10T00:11:26;5.20;96.70
4755;DHT22;2391;47.212;7.542;2022-12-10T00:13:53;5.20;96.70
4755;DHT22;2391;47.212;7.542;2022-12-10T00:16:21;5.10;96.80
4755;DHT22;2391;47.212;7.542;2022-12-10T00:18:48;5.00;96.90
4755;DHT22;2391;47.212;7.542;2022-12-10T00:21:20;5.10;97.00
4755;DHT22;2391;47.212;7.542;2022-12-10T00:23:47;5.10;97.10
4755;DHT22;2391;47.212;7.542;2022-12-10T00:26:16;5.10;96.90
4755;DHT22;2391;47.212;7.542;2022-12-10T00:28:44;5.00;96.80
4755;DHT22;2391;47.212;7.542;2022-12-10T00:33:46;4.90;97.00
4755;DHT22;2391;47.212;7.542;2022-12-10T00:36:18;4.90;97.00
4755;DHT22;2391;47.212;7.542;2022-12-10T00:38:42;4.80;97.00
4755;DHT22;2391;47.212;7.542;2022-12-10T00:41:09;4.80;97.10
4755;DHT22;2391;47.212;7.542;2022-12-10T00:43:36;4.80;97.00
4755;DHT22;2391;47.212;7.542;2022-12-10T00:46:02;4.80;97.10
4755;DHT22;2391;47.212;7.542;2022-12-10T00:48:29;4.80;97.00
4755;DHT22;2391;47.212;7.542;2022-12-10T00:51:01;4.80;97.10
4755;DHT22;2391;47.212;7.542;2022-12-10T00:53:29;4.70;97.10
4755;DHT22;2391;47.212;7.542;2022-12-10T00:55:57;4.80;97.20
4755;DHT22;2391;47.212;7.542;2022-12-10T00:58:29;4.90;97.10
4755;DHT22;2391;47.212;7.542;2022-12-10T01:01:31;5.00;97.10
4755;DHT22;2391;47.212;7.542;2022-12-10T01:04:00;5.00;96.90
4755;DHT22;2391;47.212;7.542;2022-12-10T01:06:33;5.00;96.90
4755;DHT22;2391;47.212;7.542;2022-12-10T01:08:58;5.00;96.90
4755;DHT22;2391;47.212;7.542;2022-12-10T01:11:28;5.10;96.90
4755;DHT22;2391;47.212;7.542;2022-12-10T01:13:55;5.10;96.80
4755;DHT22;2391;47.212;7.542;2022-12-10T01:16:22;5.10;96.90
4755;DHT22;2391;47.212;7.542;2022-12-10T01:18:49;5.10;97.10
4755;DHT22;2391;47.212;7.542;2022-12-10T01:21:17;5.00;96.80
4755;DHT22;2391;47.212;7.542;2022-12-10T01:23:45;5.00;96.90
4755;DHT22;2391;47.212;7.542;2022-12-10T01:26:14;4.90;96.90
4755;DHT22;2391;47.212;7.542;2022-12-10T01:28:42;4.80;97.00
4755;DHT22;2391;47.212;7.542;2022-12-10T01:31:11;4.60;97.10
4755;DHT22;2391;47.212;7.542;2022-12-10T01:33:38;4.60;97.60
4755;DHT22;2391;47.212;7.542;2022-12-10T01:36:10;4.50;97.70
4755;DHT22;2391;47.212;7.542;2022-12-10T01:38:33;4.50;97.50
4755;DHT22;2391;47.212;7.542;2022-12-10T01:41:00;4.50;97.60
4755;DHT22;2391;47.212;7.542;2022-12-10T01:43:27;4.50;97.50
4755;DHT22;2391;47.212;7.542;2022-12-10T01:45:53;4.60;97.50
4755;DHT22;2391;47.212;7.542;2022-12-10T01:48:19;4.60;97.40
4755;DHT22;2391;47.212;7.542;2022-12-10T01:50:45;4.60;97.50
4755;DHT22;2391;47.212;7.542;2022-12-10T01:53:12;4.60;97.50
4755;DHT22;2391;47.212;7.542;2022-12-10T01:55:49;4.60;97.50
4755;DHT22;2391;47.212;7.542;2022-12-10T01:58:17;4.50;97.50
4755;DHT22;2391;47.212;7.542;2022-12-10T02:00:51;4.40;97.60
4755;DHT22;2391;47.212;7.542;2022-12-10T02:03:19;4.30;97.90
4755;DHT22;2391;47.212;7.542;2022-12-10T02:05:53;4.30;98.20
4755;DHT22;2391;47.212;7.542;2022-12-10T02:08:25;4.40;98.00
4755;DHT22;2391;47.212;7.542;2022-12-10T02:11:19;4.40;98.00
4755;DHT22;2391;47.212;7.542;2022-12-10T02:13:56;4.50;97.90
4755;DHT22;2391;47.212;7.542;2022-12-10T02:16:36;4.50;97.80
4755;DHT22;2391;47.212;7.542;2022-12-10T02:19:13;4.50;97.70
4755;DHT22;2391;47.212;7.542;2022-12-10T02:21:40;4.50;97.70
4755;DHT22;2391;47.212;7.542;2022-12-10T02:24:09;4.50;97.80
4755;DHT22;2391;47.212;7.542;2022-12-10T02:29:26;4.50;97.70
4755;DHT22;2391;47.212;7.542;2022-12-10T02:34:30;4.60;97.70
4755;DHT22;2391;47.212;7.542;2022-12-10T02:36:57;4.60;97.70
4755;DHT22;2391;47.212;7.542;2022-12-10T02:39:28;4.60;97.70
4755;DHT22;2391;47.212;7.542;2022-12-10T02:41:55;4.70;97.70
4755;DHT22;2391;47.212;7.542;2022-12-10T02:44:23;4.70;97.60
4755;DHT22;2391;47.212;7.542;2022-12-10T02:46:53;4.70;97.60
4755;DHT22;2391;47.212;7.542;2022-12-10T02:49:20;4.80;97.60
4755;DHT22;2391;47.212;7.542;2022-12-10T02:51:47;4.80;97.50
4755;DHT22;2391;47.212;7.542;2022-12-10T02:57:04;4.80;97.40
4755;DHT22;2391;47.212;7.542;2022-12-10T02:59:47;4.80;97.40
4755;DHT22;2391;47.212;7.542;2022-12-10T03:02:16;4.80;97.50
4755;DHT22;2391;47.212;7.542;2022-12-10T03:07:20;4.80;97.50
4755;DHT22;2391;47.212;7.542;2022-12-10T03:09:50;4.80;97.50
4755;DHT22;2391;47.212;7.542;2022-12-10T03:12:19;4.70;97.50
4755;DHT22;2391;47.212;7.542;2022-12-10T03:14:45;4.70;97.60
4755;DHT22;2391;47.212;7.542;2022-12-10T03:17:13;4.70;97.60
4755;DHT22;2391;47.212;7.542;2022-12-10T03:19:45;4.60;97.60
4755;DHT22;2391;47.212;7.542;2022-12-10T03:22:13;4.60;97.70
4755;DHT22;2391;47.212;7.542;2022-12-10T03:24:41;4.60;97.70
4755;DHT22;2391;47.212;7.542;2022-12-10T03:27:09;4.60;97.70
4755;DHT22;2391;47.212;7.542;2022-12-10T03:29:43;4.60;97.70
4755;DHT22;2391;47.212;7.542;2022-12-10T03:32:08;4.60;97.70
4755;DHT22;2391;47.212;7.542;2022-12-10T03:34:35;4.60;97.70
4755;DHT22;2391;47.212;7.542;2022-12-10T03:37:01;4.40;97.80
4755;DHT22;2391;47.212;7.542;2022-12-10T03:39:28;4.40;98.00
4755;DHT22;2391;47.212;7.542;2022-12-10T03:41:54;4.40;98.00
4755;DHT22;2391;47.212;7.542;2022-12-10T03:44:31;4.40;98.30
4755;DHT22;2391;47.212;7.542;2022-12-10T03:46:57;4.40;98.10
4755;DHT22;2391;47.212;7.542;2022-12-10T03:49:24;4.40;98.10
4755;DHT22;2391;47.212;7.542;2022-12-10T03:51:50;4.50;98.10
4755;DHT22;2391;47.212;7.542;2022-12-10T03:54:16;4.50;98.00
4755;DHT22;2391;47.212;7.542;2022-12-10T03:56:42;4.50;98.00
4755;DHT22;2391;47.212;7.542;2022-12-10T03:59:07;4.60;98.00
4755;DHT22;2391;47.212;7.542;2022-12-10T04:01:33;4.60;97.80
4755;DHT22;2391;47.212;7.542;2022-12-10T04:03:59;4.60;97.80
4755;DHT22;2391;47.212;7.542;2022-12-10T04:06:25;4.60;97.90
4755;DHT22;2391;47.212;7.542;2022-12-10T04:08:52;4.60;97.90
4755;DHT22;2391;47.212;7.542;2022-12-10T04:11:18;4.50;97.80
4755;DHT22;2391;47.212;7.542;2022-12-10T04:13:44;4.50;97.80
4755;DHT22;2391;47.212;7.542;2022-12-10T04:16:30;4.50;97.90
4755;DHT22;2391;47.212;7.542;2022-12-10T04:21:29;4.50;97.90
4755;DHT22;2391;47.212;7.542;2022-12-10T04:24:15;4.60;97.90
4755;DHT22;2391;47.212;7.542;2022-12-10T04:27:08;4.60;97.90
4755;DHT22;2391;47.212;7.542;2022-12-10T04:29:35;4.60;97.90
4755;DHT22;2391;47.212;7.542;2022-12-10T04:32:01;4.60;97.80
4755;DHT22;2391;47.212;7.542;2022-12-10T04:34:27;4.60;97.80
4755;DHT22;2391;47.212;7.542;2022-12-10T04:36:53;4.60;97.70
4755;DHT22;2391;47.212;7.542;2022-12-10T04:39:20;4.60;97.70
4755;DHT22;2391;47.212;7.542;2022-12-10T04:41:47;4.60;97.70
4755;DHT22;2391;47.212;7.542;2022-12-10T04:44:14;4.50;97.70
4755;DHT22;2391;47.212;7.542;2022-12-10T04:46:41;4.50;97.80
4755;DHT22;2391;47.212;7.542;2022-12-10T04:49:07;4.50;97.70
4755;DHT22;2391;47.212;7.542;2022-12-10T04:51:33;4.50;97.70
4755;DHT22;2391;47.212;7.542;2022-12-10T04:53:59;4.60;97.70
4755;DHT22;2391;47.212;7.542;2022-12-10T04:56:25;4.60;97.80
4755;DHT22;2391;47.212;7.542;2022-12-10T04:58:51;4.60;97.70
4755;DHT22;2391;47.212;7.542;2022-12-10T05:01:17;4.60;97.70
4755;DHT22;2391;47.212;7.542;2022-12-10T05:03:46;4.70;97.60
4755;DHT22;2391;47.212;7.542;2022-12-10T05:06:14;4.70;97.60
4755;DHT22;2391;47.212;7.542;2022-12-10T05:08:40;4.70;97.60
4755;DHT22;2391;47.212;7.542;2022-12-10T05:11:16;4.70;97.50
4755;DHT22;2391;47.212;7.542;2022-12-10T05:13:39;4.70;97.50
4755;DHT22;2391;47.212;7.542;2022-12-10T05:16:07;4.70;97.60
4755;DHT22;2391;47.212;7.542;2022-12-10T05:18:35;4.70;97.60
4755;DHT22;2391;47.212;7.542;2022-12-10T05:21:02;4.70;97.60
4755;DHT22;2391;47.212;7.542;2022-12-10T05:23:28;4.70;97.60
4755;DHT22;2391;47.212;7.542;2022-12-10T05:26:12;4.80;97.60
4755;DHT22;2391;47.212;7.542;2022-12-10T05:28:45;4.70;97.50
4755;DHT22;2391;47.212;7.542;2022-12-10T05:31:19;4.70;97.50
4755;DHT22;2391;47.212;7.542;2022-12-10T05:33:46;4.60;97.60
4755;DHT22;2391;47.212;7.542;2022-12-10T05:36:13;4.60;97.60
4755;DHT22;2391;47.212;7.542;2022-12-10T05:38:40;4.60;97.60
4755;DHT22;2391;47.212;7.542;2022-12-10T05:41:19;4.60;97.60
4755;DHT22;2391;47.212;7.542;2022-12-10T05:43:46;4.60;97.60
4755;DHT22;2391;47.212;7.542;2022-12-10T05:46:15;4.70;97.60
4755;DHT22;2391;47.212;7.542;2022-12-10T05:48:41;4.60;97.50
4755;DHT22;2391;47.212;7.542;2022-12-10T05:51:13;4.60;97.50
4755;DHT22;2391;47.212;7.542;2022-12-10T05:53:36;4.50;97.60
4755;DHT22;2391;47.212;7.542;2022-12-10T05:56:04;4.60;97.60
4755;DHT22;2391;47.212;7.542;2022-12-10T05:58:31;4.50;97.60
4755;DHT22;2391;47.212;7.542;2022-12-10T06:00:57;4.50;97.70
4755;DHT22;2391;47.212;7.542;2022-12-10T06:03:24;4.40;97.60
4755;DHT22;2391;47.212;7.542;2022-12-10T06:05:51;4.30;97.70
4755;DHT22;2391;47.212;7.542;2022-12-10T06:08:16;4.20;97.90
4755;DHT22;2391;47.212;7.542;2022-12-10T06:10:42;4.10;98.10
4755;DHT22;2391;47.212;7.542;2022-12-10T06:13:08;4.20;98.10
4755;DHT22;2391;47.212;7.542;2022-12-10T06:15:34;4.20;98.10
4755;DHT22;2391;47.212;7.542;2022-12-10T06:18:00;4.30;98.00
4755;DHT22;2391;47.212;7.542;2022-12-10T06:20:25;4.30;97.90
4755;DHT22;2391;47.212;7.542;2022-12-10T06:22:51;4.20;97.90
4755;DHT22;2391;47.212;7.542;2022-12-10T06:25:18;4.10;98.10
4755;DHT22;2391;47.212;7.542;2022-12-10T06:27:44;4.00;98.20
4755;DHT22;2391;47.212;7.542;2022-12-10T06:30:10;4.00;98.30
4755;DHT22;2391;47.212;7.542;2022-12-10T06:32:36;3.90;98.30
4755;DHT22;2391;47.212;7.542;2022-12-10T06:35:03;3.80;98.40
4755;DHT22;2391;47.212;7.542;2022-12-10T06:37:32;3.70;98.60
4755;DHT22;2391;47.212;7.542;2022-12-10T06:39:58;3.70;98.80
4755;DHT22;2391;47.212;7.542;2022-12-10T06:42:23;3.80;98.90
4755;DHT22;2391;47.212;7.542;2022-12-10T06:44:49;3.90;98.80
4755;DHT22;2391;47.212;7.542;2022-12-10T06:47:15;4.10;98.70
4755;DHT22;2391;47.212;7.542;2022-12-10T06:49:41;4.20;98.40
4755;DHT22;2391;47.212;7.542;2022-12-10T06:52:06;4.30;98.30
4755;DHT22;2391;47.212;7.542;2022-12-10T06:54:32;4.40;98.30
4755;DHT22;2391;47.212;7.542;2022-12-10T06:56:58;4.40;98.30
4755;DHT22;2391;47.212;7.542;2022-12-10T06:59:24;4.40;98.30
4755;DHT22;2391;47.212;7.542;2022-12-10T07:01:50;4.50;98.20
4755;DHT22;2391;47.212;7.542;2022-12-10T07:04:16;4.50;98.10
4755;DHT22;2391;47.212;7.542;2022-12-10T07:06:42;4.60;97.90
4755;DHT22;2391;47.212;7.542;2022-12-10T07:09:09;4.60;97.90
4755;DHT22;2391;47.212;7.542;2022-12-10T07:11:38;4.60;97.70
4755;DHT22;2391;47.212;7.542;2022-12-10T07:14:04;4.70;97.80
4755;DHT22;2391;47.212;7.542;2022-12-10T07:16:31;4.60;97.60
4755;DHT22;2391;47.212;7.542;2022-12-10T07:19:00;4.60;98.10
4755;DHT22;2391;47.212;7.542;2022-12-10T07:23:57;4.60;97.70
4755;DHT22;2391;47.212;7.542;2022-12-10T07:26:25;4.60;97.70
4755;DHT22;2391;47.212;7.542;2022-12-10T07:28:51;4.60;97.60
4755;DHT22;2391;47.212;7.542;2022-12-10T07:31:17;4.60;97.60
4755;DHT22;2391;47.212;7.542;2022-12-10T07:33:42;4.60;97.70
4755;DHT22;2391;47.212;7.542;2022-12-10T07:36:10;4.60;97.70
4755;DHT22;2391;47.212;7.542;2022-12-10T07:38:37;4.60;97.50
4755;DHT22;2391;47.212;7.542;2022-12-10T07:41:06;4.60;97.50
4755;DHT22;2391;47.212;7.542;2022-12-10T07:43:39;4.60;97.60
4755;DHT22;2391;47.212;7.542;2022-12-10T07:46:08;4.60;97.50
4755;DHT22;2391;47.212;7.542;2022-12-10T07:48:38;4.60;97.50
4755;DHT22;2391;47.212;7.542;2022-12-10T07:51:03;4.70;97.50
4755;DHT22;2391;47.212;7.542;2022-12-10T07:53:30;4.60;97.40
4755;DHT22;2391;47.212;7.542;2022-12-10T07:55:55;4.60;97.50
4755;DHT22;2391;47.212;7.542;2022-12-10T07:58:21;4.50;97.50
4755;DHT22;2391;47.212;7.542;2022-12-10T08:00:47;4.30;97.60
4755;DHT22;2391;47.212;7.542;2022-12-10T08:03:13;4.30;97.80
4755;DHT22;2391;47.212;7.542;2022-12-10T08:05:39;4.30;98.00
4755;DHT22;2391;47.212;7.542;2022-12-10T08:08:05;4.40;97.90
4755;DHT22;2391;47.212;7.542;2022-12-10T08:10:35;4.50;97.70
4755;DHT22;2391;47.212;7.542;2022-12-10T08:13:01;4.50;97.70
4755;DHT22;2391;47.212;7.542;2022-12-10T08:15:27;4.60;97.70
4755;DHT22;2391;47.212;7.542;2022-12-10T08:17:54;4.50;97.70
4755;DHT22;2391;47.212;7.542;2022-12-10T08:20:20;4.60;97.80
4755;DHT22;2391;47.212;7.542;2022-12-10T08:22:46;4.60;97.70
4755;DHT22;2391;47.212;7.542;2022-12-10T08:25:12;4.70;97.60
4755;DHT22;2391;47.212;7.542;2022-12-10T08:27:37;4.70;97.50
4755;DHT22;2391;47.212;7.542;2022-12-10T08:30:04;4.80;97.50
4755;DHT22;2391;47.212;7.542;2022-12-10T08:32:30;4.70;97.40
4755;DHT22;2391;47.212;7.542;2022-12-10T08:34:55;4.70;97.50
4755;DHT22;2391;47.212;7.542;2022-12-10T08:37:21;4.70;97.50
4755;DHT22;2391;47.212;7.542;2022-12-10T08:39:47;4.60;97.40
4755;DHT22;2391;47.212;7.542;2022-12-10T08:42:13;4.50;97.40
4755;DHT22;2391;47.212;7.542;2022-12-10T08:44:39;4.30;97.70
4755;DHT22;2391;47.212;7.542;2022-12-10T08:47:05;4.20;97.80
4755;DHT22;2391;47.212;7.542;2022-12-10T08:49:31;4.20;98.10
4755;DHT22;2391;47.212;7.542;2022-12-10T08:51:57;4.20;98.10
4755;DHT22;2391;47.212;7.542;2022-12-10T08:54:23;4.20;98.20
4755;DHT22;2391;47.212;7.542;2022-12-10T08:56:48;4.40;98.10
4755;DHT22;2391;47.212;7.542;2022-12-10T08:59:14;4.40;98.00
4755;DHT22;2391;47.212;7.542;2022-12-10T09:01:40;4.50;98.00
4755;DHT22;2391;47.212;7.542;2022-12-10T09:04:06;4.60;97.90
4755;DHT22;2391;47.212;7.542;2022-12-10T09:06:32;4.60;97.80
4755;DHT22;2391;47.212;7.542;2022-12-10T09:08:57;4.70;97.70
4755;DHT22;2391;47.212;7.542;2022-12-10T09:11:26;4.80;97.70
4755;DHT22;2391;47.212;7.542;2022-12-10T09:13:53;4.80;97.70
4755;DHT22;2391;47.212;7.542;2022-12-10T09:16:19;4.80;97.60
4755;DHT22;2391;47.212;7.542;2022-12-10T09:18:45;4.80;97.60
4755;DHT22;2391;47.212;7.542;2022-12-10T09:21:14;4.80;97.60
4755;DHT22;2391;47.212;7.542;2022-12-10T09:23:40;4.90;97.60
4755;DHT22;2391;47.212;7.542;2022-12-10T09:26:08;5.00;97.60
4755;DHT22;2391;47.212;7.542;2022-12-10T09:28:35;5.00;97.50
4755;DHT22;2391;47.212;7.542;2022-12-10T09:31:02;5.00;97.40
4755;DHT22;2391;47.212;7.542;2022-12-10T09:33:30;5.00;97.40
4755;DHT22;2391;47.212;7.542;2022-12-10T09:35:56;5.00;97.50
4755;DHT22;2391;47.212;7.542;2022-12-10T09:38:22;5.00;97.50
4755;DHT22;2391;47.212;7.542;2022-12-10T09:41:00;5.00;97.40
4755;DHT22;2391;47.212;7.542;2022-12-10T09:51:13;4.90;97.40
4755;DHT22;2391;47.212;7.542;2022-12-10T09:53:40;4.70;97.70
4755;DHT22;2391;47.212;7.542;2022-12-10T09:56:09;4.40;98.00
4755;DHT22;2391;47.212;7.542;2022-12-10T09:58:36;4.40;98.20
4755;DHT22;2391;47.212;7.542;2022-12-10T10:01:05;4.20;98.40
4755;DHT22;2391;47.212;7.542;2022-12-10T10:03:36;4.20;98.60
4755;DHT22;2391;47.212;7.542;2022-12-10T10:06:03;4.40;98.60
4755;DHT22;2391;47.212;7.542;2022-12-10T10:08:39;4.50;98.50
4755;DHT22;2391;47.212;7.542;2022-12-10T10:11:03;4.60;98.40
4755;DHT22;2391;47.212;7.542;2022-12-10T10:13:34;4.60;98.00
4755;DHT22;2391;47.212;7.542;2022-12-10T10:16:17;4.60;97.90
4755;DHT22;2391;47.212;7.542;2022-12-10T10:19:00;4.50;98.10
4755;DHT22;2391;47.212;7.542;2022-12-10T10:21:36;4.40;98.10
4755;DHT22;2391;47.212;7.542;2022-12-10T10:24:03;4.50;98.10
4755;DHT22;2391;47.212;7.542;2022-12-10T10:26:29;4.50;98.10
4755;DHT22;2391;47.212;7.542;2022-12-10T10:28:58;4.50;98.10
4755;DHT22;2391;47.212;7.542;2022-12-10T10:31:27;4.50;98.00
4755;DHT22;2391;47.212;7.542;2022-12-10T10:33:59;4.60;98.10
4755;DHT22;2391;47.212;7.542;2022-12-10T10:36:28;4.60;98.30
4755;DHT22;2391;47.212;7.542;2022-12-10T10:38:54;4.70;98.00
4755;DHT22;2391;47.212;7.542;2022-12-10T10:41:20;4.70;98.00
4755;DHT22;2391;47.212;7.542;2022-12-10T10:43:46;4.80;97.90
4755;DHT22;2391;47.212;7.542;2022-12-10T10:46:21;4.80;97.80
4755;DHT22;2391;47.212;7.542;2022-12-10T10:48:48;4.90;97.70
4755;DHT22;2391;47.212;7.542;2022-12-10T10:53:49;4.70;97.70
4755;DHT22;2391;47.212;7.542;2022-12-10T10:56:20;4.60;98.00
4755;DHT22;2391;47.212;7.542;2022-12-10T11:01:16;4.50;98.20
4755;DHT22;2391;47.212;7.542;2022-12-10T11:03:48;4.50;98.10
4755;DHT22;2391;47.212;7.542;2022-12-10T11:06:15;4.50;98.10
4755;DHT22;2391;47.212;7.542;2022-12-10T11:08:43;4.50;98.10
4755;DHT22;2391;47.212;7.542;2022-12-10T11:11:13;4.50;98.00
4755;DHT22;2391;47.212;7.542;2022-12-10T11:13:39;4.60;98.10
4755;DHT22;2391;47.212;7.542;2022-12-10T11:18:58;4.70;97.80
4755;DHT22;2391;47.212;7.542;2022-12-10T11:21:26;4.70;97.70
4755;DHT22;2391;47.212;7.542;2022-12-10T11:23:54;4.70;97.80
4755;DHT22;2391;47.212;7.542;2022-12-10T11:26:54;4.70;97.80
4755;DHT22;2391;47.212;7.542;2022-12-10T11:40:34;5.00;97.50
4755;DHT22;2391;47.212;7.542;2022-12-10T11:43:39;5.00;97.40
4755;DHT22;2391;47.212;7.542;2022-12-10T11:45:51;5.00;97.40
4755;DHT22;2391;47.212;7.542;2022-12-10T11:51:08;5.10;97.20
4755;DHT22;2391;47.212;7.542;2022-12-10T11:53:48;5.10;97.00
4755;DHT22;2391;47.212;7.542;2022-12-10T11:58:55;5.10;96.90
4755;DHT22;2391;47.212;7.542;2022-12-10T12:01:24;5.10;96.90
4755;DHT22;2391;47.212;7.542;2022-12-10T12:12:26;5.10;97.30
4755;DHT22;2391;47.212;7.542;2022-12-10T12:15:03;5.00;97.30
4755;DHT22;2391;47.212;7.542;2022-12-10T12:17:34;5.00;97.40
4755;DHT22;2391;47.212;7.542;2022-12-10T12:20:17;5.00;97.30
4755;DHT22;2391;47.212;7.542;2022-12-10T12:22:37;5.00;97.30
4755;DHT22;2391;47.212;7.542;2022-12-10T12:25:26;4.90;97.40
4755;DHT22;2391;47.212;7.542;2022-12-10T12:27:43;4.80;97.50
4755;DHT22;2391;47.212;7.542;2022-12-10T12:30:16;4.80;97.50
4755;DHT22;2391;47.212;7.542;2022-12-10T12:38:31;4.80;97.40
4755;DHT22;2391;47.212;7.542;2022-12-10T12:43:42;4.80;97.50
4755;DHT22;2391;47.212;7.542;2022-12-10T12:46:14;4.80;97.50
4755;DHT22;2391;47.212;7.542;2022-12-10T12:48:57;4.80;97.50
4755;DHT22;2391;47.212;7.542;2022-12-10T12:51:40;4.90;97.50
4755;DHT22;2391;47.212;7.542;2022-12-10T12:54:07;4.80;97.50
4755;DHT22;2391;47.212;7.542;2022-12-10T12:57:01;4.80;97.50
4755;DHT22;2391;47.212;7.542;2022-12-10T13:02:28;4.90;97.40
4755;DHT22;2391;47.212;7.542;2022-12-10T13:04:51;4.70;97.40
4755;DHT22;2391;47.212;7.542;2022-12-10T13:12:49;4.30;97.80
4755;DHT22;2391;47.212;7.542;2022-12-10T13:15:20;4.20;98.10
4755;DHT22;2391;47.212;7.542;2022-12-10T13:23:29;4.60;97.90
4755;DHT22;2391;47.212;7.542;2022-12-10T13:25:57;4.70;97.80
4755;DHT22;2391;47.212;7.542;2022-12-10T13:28:30;4.70;97.70
4755;DHT22;2391;47.212;7.542;2022-12-10T13:31:07;4.80;97.60
4755;DHT22;2391;47.212;7.542;2022-12-10T13:41:33;4.90;98.00
4755;DHT22;2391;47.212;7.542;2022-12-10T13:49:54;4.80;97.70
4755;DHT22;2391;47.212;7.542;2022-12-10T13:52:30;4.80;97.70
4755;DHT22;2391;47.212;7.542;2022-12-10T14:00:14;4.80;97.80
4755;DHT22;2391;47.212;7.542;2022-12-10T14:06:03;4.90;97.50
4755;DHT22;2391;47.212;7.542;2022-12-10T14:08:31;4.90;97.50
4755;DHT22;2391;47.212;7.542;2022-12-10T14:11:04;4.80;97.50
4755;DHT22;2391;47.212;7.542;2022-12-10T14:13:39;4.70;97.80
4755;DHT22;2391;47.212;7.542;2022-12-10T14:16:11;4.70;97.90
4755;DHT22;2391;47.212;7.542;2022-12-10T14:18:43;4.70;98.00
4755;DHT22;2391;47.212;7.542;2022-12-10T14:21:12;4.70;97.90
4755;DHT22;2391;47.212;7.542;2022-12-10T14:23:44;4.70;97.90
4755;DHT22;2391;47.212;7.542;2022-12-10T14:26:16;4.70;97.80
4755;DHT22;2391;47.212;7.542;2022-12-10T14:28:45;4.60;97.90
4755;DHT22;2391;47.212;7.542;2022-12-10T14:31:14;4.70;98.00
4755;DHT22;2391;47.212;7.542;2022-12-10T14:33:41;4.70;97.80
4755;DHT22;2391;47.212;7.542;2022-12-10T14:36:06;4.60;97.80
4755;DHT22;2391;47.212;7.542;2022-12-10T14:38:34;4.50;97.90
4755;DHT22;2391;47.212;7.542;2022-12-10T14:41:02;4.50;97.90
4755;DHT22;2391;47.212;7.542;2022-12-10T14:43:36;4.50;98.00
4755;DHT22;2391;47.212;7.542;2022-12-10T14:46:05;4.50;98.10
4755;DHT22;2391;47.212;7.542;2022-12-10T14:48:39;4.40;98.10
4755;DHT22;2391;47.212;7.542;2022-12-10T14:51:15;4.40;98.10
4755;DHT22;2391;47.212;7.542;2022-12-10T14:53:42;4.50;98.10
4755;DHT22;2391;47.212;7.542;2022-12-10T14:56:11;4.60;98.10
4755;DHT22;2391;47.212;7.542;2022-12-10T15:01:36;4.80;97.90
4755;DHT22;2391;47.212;7.542;2022-12-10T15:04:05;4.90;97.70
4755;DHT22;2391;47.212;7.542;2022-12-10T15:06:36;4.90;97.70
4755;DHT22;2391;47.212;7.542;2022-12-10T15:09:04;4.90;97.60
4755;DHT22;2391;47.212;7.542;2022-12-10T15:11:31;5.00;97.60
4755;DHT22;2391;47.212;7.542;2022-12-10T15:13:59;5.10;97.40
4755;DHT22;2391;47.212;7.542;2022-12-10T15:16:43;5.20;97.30
4755;DHT22;2391;47.212;7.542;2022-12-10T15:19:24;5.20;97.20
4755;DHT22;2391;47.212;7.542;2022-12-10T15:21:49;5.10;97.30
4755;DHT22;2391;47.212;7.542;2022-12-10T15:24:36;5.10;97.40
4755;DHT22;2391;47.212;7.542;2022-12-10T15:27:02;5.10;97.30
4755;DHT22;2391;47.212;7.542;2022-12-10T15:29:33;5.10;97.30
4755;DHT22;2391;47.212;7.542;2022-12-10T15:32:05;5.00;97.20
4755;DHT22;2391;47.212;7.542;2022-12-10T15:34:36;5.00;97.20
4755;DHT22;2391;47.212;7.542;2022-12-10T15:37:03;5.10;97.20
4755;DHT22;2391;47.212;7.542;2022-12-10T15:39:37;5.10;97.20
4755;DHT22;2391;47.212;7.542;2022-12-10T15:42:05;4.90;97.00
4755;DHT22;2391;47.212;7.542;2022-12-10T15:44:40;4.60;97.40
4755;DHT22;2391;47.212;7.542;2022-12-10T15:47:15;4.50;97.60
4755;DHT22;2391;47.212;7.542;2022-12-10T15:49:40;4.50;97.60
4755;DHT22;2391;47.212;7.542;2022-12-10T15:52:21;4.40;97.60
4755;DHT22;2391;47.212;7.542;2022-12-10T15:54:50;4.20;97.80
4755;DHT22;2391;47.212;7.542;2022-12-10T15:57:23;4.20;98.10
4755;DHT22;2391;47.212;7.542;2022-12-10T15:59:51;4.20;98.00
4755;DHT22;2391;47.212;7.542;2022-12-10T16:05:15;4.30;98.00
4755;DHT22;2391;47.212;7.542;2022-12-10T16:07:42;4.40;98.10
4755;DHT22;2391;47.212;7.542;2022-12-10T16:10:11;4.40;98.00
4755;DHT22;2391;47.212;7.542;2022-12-10T16:12:37;4.40;97.90
4755;DHT22;2391;47.212;7.542;2022-12-10T16:15:07;4.40;97.90
4755;DHT22;2391;47.212;7.542;2022-12-10T16:17:33;4.50;97.90
4755;DHT22;2391;47.212;7.542;2022-12-10T16:20:09;4.50;97.90
4755;DHT22;2391;47.212;7.542;2022-12-10T16:22:27;4.60;97.70
4755;DHT22;2391;47.212;7.542;2022-12-10T16:24:53;4.60;97.70
4755;DHT22;2391;47.212;7.542;2022-12-10T16:27:19;4.60;97.60
4755;DHT22;2391;47.212;7.542;2022-12-10T16:29:45;4.70;97.60
4755;DHT22;2391;47.212;7.542;2022-12-10T16:32:11;4.80;97.40
4755;DHT22;2391;47.212;7.542;2022-12-10T16:34:37;4.70;97.20
4755;DHT22;2391;47.212;7.542;2022-12-10T16:37:04;4.70;97.30
4755;DHT22;2391;47.212;7.542;2022-12-10T16:39:31;4.70;97.30
4755;DHT22;2391;47.212;7.542;2022-12-10T16:41:57;4.70;97.20
4755;DHT22;2391;47.212;7.542;2022-12-10T16:44:23;4.80;97.10
4755;DHT22;2391;47.212;7.542;2022-12-10T16:46:49;4.80;97.10
4755;DHT22;2391;47.212;7.542;2022-12-10T16:49:15;4.80;97.10
4755;DHT22;2391;47.212;7.542;2022-12-10T16:51:40;4.80;97.10
4755;DHT22;2391;47.212;7.542;2022-12-10T16:54:09;4.80;97.00
4755;DHT22;2391;47.212;7.542;2022-12-10T16:56:37;4.70;97.00
4755;DHT22;2391;47.212;7.542;2022-12-10T16:59:03;4.60;97.20
4755;DHT22;2391;47.212;7.542;2022-12-10T17:01:29;4.70;97.30
4755;DHT22;2391;47.212;7.542;2022-12-10T17:03:58;4.70;97.20
4755;DHT22;2391;47.212;7.542;2022-12-10T17:06:25;4.80;97.20
4755;DHT22;2391;47.212;7.542;2022-12-10T17:08:51;4.80;97.20
4755;DHT22;2391;47.212;7.542;2022-12-10T17:11:23;4.80;97.20
4755;DHT22;2391;47.212;7.542;2022-12-10T17:14:25;4.80;97.20
4755;DHT22;2391;47.212;7.542;2022-12-10T17:16:54;4.70;97.20
4755;DHT22;2391;47.212;7.542;2022-12-10T17:19:21;4.70;97.20
4755;DHT22;2391;47.212;7.542;2022-12-10T17:21:46;4.70;97.20
4755;DHT22;2391;47.212;7.542;2022-12-10T17:24:12;4.70;97.20
4755;DHT22;2391;47.212;7.542;2022-12-10T17:26:40;4.70;97.20
4755;DHT22;2391;47.212;7.542;2022-12-10T17:29:29;4.80;97.20
4755;DHT22;2391;47.212;7.542;2022-12-10T17:31:55;4.80;97.20
4755;DHT22;2391;47.212;7.542;2022-12-10T17:34:20;4.70;97.10
4755;DHT22;2391;47.212;7.542;2022-12-10T17:36:48;4.60;97.20
4755;DHT22;2391;47.212;7.542;2022-12-10T17:39:16;4.50;97.30
4755;DHT22;2391;47.212;7.542;2022-12-10T17:41:42;4.40;97.40
4755;DHT22;2391;47.212;7.542;2022-12-10T17:44:08;4.40;97.10
4755;DHT22;2391;47.212;7.542;2022-12-10T17:46:34;4.40;96.80
4755;DHT22;2391;47.212;7.542;2022-12-10T17:49:01;4.30;97.00
4755;DHT22;2391;47.212;7.542;2022-12-10T17:51:28;4.20;97.20
4755;DHT22;2391;47.212;7.542;2022-12-10T17:53:54;4.20;97.20
4755;DHT22;2391;47.212;7.542;2022-12-10T17:56:22;4.20;97.10
4755;DHT22;2391;47.212;7.542;2022-12-10T17:58:51;4.00;97.30
4755;DHT22;2391;47.212;7.542;2022-12-10T18:01:18;3.80;97.70
4755;DHT22;2391;47.212;7.542;2022-12-10T18:03:44;3.70;98.00
4755;DHT22;2391;47.212;7.542;2022-12-10T18:06:16;3.80;98.10
4755;DHT22;2391;47.212;7.542;2022-12-10T18:08:43;3.80;98.10
4755;DHT22;2391;47.212;7.542;2022-12-10T18:11:11;4.00;98.00
4755;DHT22;2391;47.212;7.542;2022-12-10T18:13:37;4.00;97.70
4755;DHT22;2391;47.212;7.542;2022-12-10T18:16:08;4.10;97.70
4755;DHT22;2391;47.212;7.542;2022-12-10T18:18:34;4.20;97.50